Time;durP1;ratioP1;P1;durP2;ratioP2;P2;SDS_P1;SDS_P2;PMS_P1;PMS_P2;Temp;Humidity;BMP_temperature;BMP_pressure;BME280_temperature;BME280_humidity;BME280_pressure;Samples;Min_cycle;Max_cycle;Signal;HPM_P1;HPM_P2
2023/05/21 00:01:05;;;;;;;;;;;;;;;16.68;73.52;99516.62;67954;1275;1018151;-64
2023/05/21 00:04:30;;;;;;;;;;;;;;;16.73;73.73;99506.57;67956;1275;1016317;-68
2023/05/21 00:07:36;;;;;;;;;;;;;;;16.84;73.03;99505.02;67976;1275;1016476;-67
2023/05/21 00:10:39;;;;;;;;;;;;;;;16.77;74.08;99504.86;67981;1275;1016230;-63
2023/05/21 00:13:42;;;;;;;;;;;;;;;16.66;76.00;99501.64;67937;1275;1016005;-63
2023/05/21 00:16:53;;;;;;;;;;;;;;;16.62;76.06;99502.05;65375;1275;6361736;-63
2023/05/21 00:19:57;;;;;;;;;;;;;;;16.61;75.86;99500.06;67955;1275;1015959;-69
2023/05/21 00:23:01;;;;;;;;;;;;;;;16.52;76.51;99500.04;67987;1275;1015879;-64
2023/05/21 00:26:04;;;;;;;;;;;;;;;16.60;76.12;99501.51;68003;1275;1016465;-69
2023/05/21 00:29:07;;;;;;;;;;;;;;;16.55;76.92;99506.52;67918;1275;1015988;-63
2023/05/21 00:32:10;;;;;;;;;;;;;;;16.60;76.85;99505.09;67992;1275;1016473;-66
2023/05/21 00:35:13;;;;;;;;;;;;;;;16.44;77.96;99506.21;67972;1275;1016380;-63
2023/05/21 00:38:17;;;;;;;;;;;;;;;16.61;76.75;99500.70;67982;1275;1016100;-63
2023/05/21 00:41:21;;;;;;;;;;;;;;;16.74;77.93;99502.75;68019;1275;1016155;-63
2023/05/21 00:44:25;;;;;;;;;;;;;;;16.69;78.73;99505.60;67961;1275;1016444;-64
2023/05/21 00:47:28;;;;;;;;;;;;;;;16.72;79.21;99505.77;67941;1275;1015956;-64
2023/05/21 00:50:31;;;;;;;;;;;;;;;16.72;78.56;99504.52;68034;1275;1017805;-69
2023/05/21 00:53:35;;;;;;;;;;;;;;;16.71;77.90;99505.80;67975;1275;1016397;-64
2023/05/21 00:56:37;;;;;;;;;;;;;;;16.75;78.01;99507.98;67943;1275;1016372;-64
2023/05/21 00:59:40;;;;;;;;;;;;;;;16.86;77.33;99508.09;67918;1275;1016298;-64
2023/05/21 01:02:44;;;;;;;;;;;;;;;16.90;76.92;99504.04;67980;1275;1016386;-64
2023/05/21 01:05:47;;;;;;;;;;;;;;;16.98;77.11;99504.16;67881;1275;1016374;-67
2023/05/21 01:08:50;;;;;;;;;;;;;;;17.11;76.75;99504.02;67980;1275;1018144;-64
2023/05/21 01:11:54;;;;;;;;;;;;;;;17.19;76.32;99497.09;68014;1275;1016285;-68
2023/05/21 01:14:58;;;;;;;;;;;;;;;17.14;76.13;99493.55;67974;1275;1016325;-67
2023/05/21 01:18:01;;;;;;;;;;;;;;;17.12;76.25;99493.20;67929;1275;1016737;-69
2023/05/21 01:21:06;;;;;;;;;;;;;;;17.13;75.65;99490.98;67991;1275;1016574;-64
2023/05/21 01:24:12;;;;;;;;;;;;;;;16.99;76.32;99490.30;67982;1275;1016184;-64
2023/05/21 01:27:15;;;;;;;;;;;;;;;16.99;76.21;99490.83;67920;1275;1016029;-64
2023/05/21 01:30:18;;;;;;;;;;;;;;;16.82;76.03;99486.12;68015;1275;1016218;-64
2023/05/21 01:33:21;;;;;;;;;;;;;;;16.56;77.10;99483.99;67982;1275;1016233;-64
2023/05/21 01:36:25;;;;;;;;;;;;;;;16.47;76.93;99487.50;68010;1275;1016570;-69
2023/05/21 01:39:27;;;;;;;;;;;;;;;16.45;76.91;99483.60;67920;1275;1016265;-64
2023/05/21 01:42:30;;;;;;;;;;;;;;;16.47;76.41;99484.15;68001;1275;1016447;-64
2023/05/21 01:45:33;;;;;;;;;;;;;;;16.49;76.65;99483.32;67980;1275;1016387;-64
2023/05/21 01:48:36;;;;;;;;;;;;;;;16.47;77.23;99475.09;67951;1275;1016084;-68
2023/05/21 01:51:40;;;;;;;;;;;;;;;16.47;76.83;99475.71;68004;1275;1016114;-65
2023/05/21 01:55:02;;;;;;;;;;;;;;;16.51;77.22;99473.59;67997;1275;1016401;-68
2023/05/21 01:58:06;;;;;;;;;;;;;;;16.61;76.92;99475.30;67948;1275;1016395;-68
2023/05/21 02:01:10;;;;;;;;;;;;;;;16.55;77.17;99473.52;67930;1275;1016660;-68
2023/05/21 02:04:14;;;;;;;;;;;;;;;16.58;77.01;99472.72;67973;1275;1016411;-63
2023/05/21 02:07:21;;;;;;;;;;;;;;;16.60;77.12;99469.00;68002;1275;1016445;-63
2023/05/21 02:10:24;;;;;;;;;;;;;;;16.67;76.96;99471.86;68004;1275;1016792;-64
2023/05/21 02:13:31;;;;;;;;;;;;;;;16.74;77.40;99469.42;68018;1275;1016408;-63
2023/05/21 02:16:35;;;;;;;;;;;;;;;16.91;76.95;99466.02;68019;1275;1016515;-64
2023/05/21 02:19:38;;;;;;;;;;;;;;;17.01;76.71;99459.09;68048;1275;1016822;-64
2023/05/21 02:22:45;;;;;;;;;;;;;;;16.99;77.01;99463.98;67995;1275;1016017;-64
2023/05/21 02:25:48;;;;;;;;;;;;;;;16.99;76.93;99461.38;68005;1275;1016363;-64
2023/05/21 02:28:52;;;;;;;;;;;;;;;16.99;77.07;99457.92;67951;1275;1016717;-63
2023/05/21 02:31:56;;;;;;;;;;;;;;;17.09;76.58;99454.94;67974;1275;1016319;-64
2023/05/21 02:34:59;;;;;;;;;;;;;;;17.17;75.91;99453.93;68015;1275;1016617;-69
2023/05/21 02:38:03;;;;;;;;;;;;;;;17.10;75.93;99450.24;68061;1275;1016624;-66
2023/05/21 02:41:06;;;;;;;;;;;;;;;17.00;76.23;99449.44;67979;1275;1016484;-64
2023/05/21 02:44:09;;;;;;;;;;;;;;;16.89;76.27;99448.34;67986;1275;1016392;-63
2023/05/21 02:47:13;;;;;;;;;;;;;;;16.72;76.43;99448.52;68040;1275;1016332;-66
2023/05/21 02:50:16;;;;;;;;;;;;;;;16.68;76.40;99445.86;67982;1275;1016453;-65
2023/05/21 02:53:20;;;;;;;;;;;;;;;16.62;77.14;99446.61;68012;1275;1016359;-64
2023/05/21 02:56:23;;;;;;;;;;;;;;;16.59;76.87;99440.83;68028;1275;1016419;-66
2023/05/21 02:59:27;;;;;;;;;;;;;;;16.55;77.08;99444.00;68014;1275;1016078;-66
2023/05/21 03:02:31;;;;;;;;;;;;;;;16.63;76.81;99443.17;68028;1275;1015825;-63
2023/05/21 03:05:34;;;;;;;;;;;;;;;16.69;76.72;99437.84;67986;1275;1016351;-63
2023/05/21 03:08:38;;;;;;;;;;;;;;;16.87;75.71;99433.30;68012;1275;1016629;-64
2023/05/21 03:11:41;;;;;;;;;;;;;;;17.01;74.76;99433.63;68000;1275;1015989;-67
2023/05/21 03:14:45;;;;;;;;;;;;;;;17.16;74.00;99431.73;67972;1275;1016441;-68
2023/05/21 03:17:49;;;;;;;;;;;;;;;17.29;73.41;99429.47;68001;1275;1016482;-63
2023/05/21 03:20:53;;;;;;;;;;;;;;;17.33;73.23;99424.05;67946;1275;1016370;-69
2023/05/21 03:23:57;;;;;;;;;;;;;;;17.23;73.92;99423.98;67960;1275;1016442;-63
2023/05/21 03:27:01;;;;;;;;;;;;;;;17.33;73.64;99424.39;67903;1275;1016575;-63
2023/05/21 03:30:04;;;;;;;;;;;;;;;17.34;73.44;99419.39;67973;1275;1016539;-62
2023/05/21 03:33:08;;;;;;;;;;;;;;;17.40;73.22;99418.90;67943;1272;1016198;-63
2023/05/21 03:36:11;;;;;;;;;;;;;;;17.52;72.74;99421.27;67859;1276;1016387;-66
2023/05/21 03:39:15;;;;;;;;;;;;;;;17.73;72.12;99422.39;67853;1276;1016369;-64
2023/05/21 03:42:18;;;;;;;;;;;;;;;17.89;71.73;99423.98;67908;1276;1016383;-63
2023/05/21 03:45:21;;;;;;;;;;;;;;;18.00;71.43;99420.08;67887;1276;1015833;-68
2023/05/21 03:48:24;;;;;;;;;;;;;;;18.18;71.04;99422.82;67899;1276;1016713;-63
2023/05/21 03:51:26;;;;;;;;;;;;;;;18.35;70.18;99419.70;67918;1268;1016004;-63
2023/05/21 03:54:29;;;;;;;;;;;;;;;18.51;69.71;99423.14;67867;1271;1018129;-63
2023/05/21 03:57:34;;;;;;;;;;;;;;;18.65;69.42;99422.49;67895;1276;1016137;-64
2023/05/21 04:00:37;;;;;;;;;;;;;;;18.77;68.26;99419.69;67897;1276;1018033;-63
2023/05/21 04:03:39;;;;;;;;;;;;;;;18.79;68.45;99418.09;67926;1275;1017047;-62
2023/05/21 04:06:42;;;;;;;;;;;;;;;18.98;68.47;99420.01;67942;1275;1016382;-68
2023/05/21 04:09:46;;;;;;;;;;;;;;;19.19;68.25;99418.59;67996;1275;1015808;-64
2023/05/21 04:12:51;;;;;;;;;;;;;;;19.35;66.57;99417.33;68014;1275;1016481;-64
2023/05/21 04:15:54;;;;;;;;;;;;;;;19.43;66.56;99414.39;67933;1275;1016268;-63
2023/05/21 04:18:57;;;;;;;;;;;;;;;19.61;66.43;99413.45;67930;1271;1016572;-63
2023/05/21 04:22:01;;;;;;;;;;;;;;;19.93;64.76;99415.21;67897;1276;1017793;-63
2023/05/21 04:25:04;;;;;;;;;;;;;;;20.24;63.86;99414.42;67857;1276;1016355;-63
2023/05/21 04:28:07;;;;;;;;;;;;;;;20.54;62.79;99411.39;67826;1276;1016519;-63
2023/05/21 04:31:11;;;;;;;;;;;;;;;20.88;62.02;99408.30;67872;1275;1016255;-68
2023/05/21 04:34:16;;;;;;;;;;;;;;;21.24;60.68;99400.23;68025;1275;1016979;-64
2023/05/21 04:37:23;;;;;;;;;;;;;;;21.52;60.77;99395.22;67968;1275;1016299;-64
2023/05/21 04:40:26;;;;;;;;;;;;;;;21.86;59.85;99392.31;67932;1275;1018535;-70
2023/05/21 04:43:29;;;;;;;;;;;;;;;22.21;57.52;99392.84;68014;1275;1016539;-69
2023/05/21 04:46:36;;;;;;;;;;;;;;;22.45;56.94;99393.73;67959;1275;1016882;-70
2023/05/21 04:49:39;;;;;;;;;;;;;;;22.68;57.18;99396.73;67985;1275;1016076;-69
2023/05/21 04:52:44;;;;;;;;;;;;;;;23.04;53.40;99393.90;67986;1275;1016834;-65
2023/05/21 04:55:55;;;;;;;;;;;;;;;23.52;54.31;99394.50;68033;1275;1016484;-70
2023/05/21 04:58:58;;;;;;;;;;;;;;;23.91;52.49;99396.65;68003;1275;1016158;-65
2023/05/21 05:02:02;;;;;;;;;;;;;;;24.11;51.54;99396.09;67952;1275;1016258;-70
2023/05/21 05:05:05;;;;;;;;;;;;;;;24.45;51.76;99396.61;67965;1275;1016447;-70
2023/05/21 05:08:09;;;;;;;;;;;;;;;24.77;51.19;99395.98;68013;1275;1015831;-64
2023/05/21 05:11:12;;;;;;;;;;;;;;;25.04;49.07;99393.51;68015;1275;1015885;-64
2023/05/21 05:14:34;;;;;;;;;;;;;;;25.35;48.98;99395.78;67952;1275;1016008;-69
2023/05/21 05:17:38;;;;;;;;;;;;;;;25.49;47.89;99395.13;67967;1275;1016283;-64
2023/05/21 05:20:41;;;;;;;;;;;;;;;25.49;46.94;99390.92;67986;1275;1016245;-64
2023/05/21 05:23:45;;;;;;;;;;;;;;;25.37;45.79;99392.44;67986;1275;1016372;-65
2023/05/21 05:26:48;;;;;;;;;;;;;;;25.07;47.40;99391.02;67905;1275;1016380;-70
2023/05/21 05:29:52;;;;;;;;;;;;;;;24.95;46.40;99393.41;67961;1275;1016009;-70
2023/05/21 05:32:55;;;;;;;;;;;;;;;24.59;45.77;99394.96;67939;1275;1016218;-67
2023/05/21 05:35:59;;;;;;;;;;;;;;;24.22;45.29;99394.85;67981;1275;1016864;-69
2023/05/21 05:39:02;;;;;;;;;;;;;;;24.10;46.66;99391.21;67954;1275;1016192;-69
2023/05/21 05:42:06;;;;;;;;;;;;;;;24.15;47.78;99387.55;67972;1275;1016159;-64
2023/05/21 05:45:09;;;;;;;;;;;;;;;24.44;46.85;99386.42;67959;1275;1016367;-65
2023/05/21 05:48:15;;;;;;;;;;;;;;;24.56;45.11;99381.62;68017;1275;1018469;-65
2023/05/21 05:51:18;;;;;;;;;;;;;;;24.54;45.69;99381.22;67905;1275;1016647;-65
2023/05/21 05:54:21;;;;;;;;;;;;;;;24.66;46.40;99387.14;68000;1275;1018059;-66
2023/05/21 05:57:24;;;;;;;;;;;;;;;24.83;45.69;99385.14;67849;1275;1018747;-65
2023/05/21 06:00:27;;;;;;;;;;;;;;;24.88;45.22;99379.76;67837;1275;1016054;-65
2023/05/21 06:03:30;;;;;;;;;;;;;;;24.81;44.76;99382.33;67842;1275;1016216;-65
2023/05/21 06:06:33;;;;;;;;;;;;;;;24.94;45.62;99380.64;67947;1275;1016477;-65
2023/05/21 06:09:37;;;;;;;;;;;;;;;24.87;44.52;99379.42;67927;1275;1016318;-65
2023/05/21 06:12:40;;;;;;;;;;;;;;;24.84;44.64;99377.82;67962;1275;1016481;-65
2023/05/21 06:15:43;;;;;;;;;;;;;;;25.08;45.58;99379.61;68018;1275;1016137;-69
2023/05/21 06:18:46;;;;;;;;;;;;;;;25.30;44.91;99378.30;67955;1275;1016416;-65
2023/05/21 06:21:49;;;;;;;;;;;;;;;25.36;44.65;99378.89;67914;1275;1016492;-70
2023/05/21 06:24:52;;;;;;;;;;;;;;;25.49;44.71;99371.39;68033;1275;1016526;-66
2023/05/21 06:27:55;;;;;;;;;;;;;;;25.60;45.02;99371.46;67980;1275;1016425;-70
2023/05/21 06:30:58;;;;;;;;;;;;;;;25.78;44.48;99369.73;67940;1275;1016333;-65
2023/05/21 06:34:01;;;;;;;;;;;;;;;25.84;44.38;99367.90;68024;1275;1015743;-65
2023/05/21 06:37:05;;;;;;;;;;;;;;;26.01;44.41;99365.66;67986;1275;1016530;-68
2023/05/21 06:40:08;;;;;;;;;;;;;;;26.11;42.90;99360.16;67977;1275;1016492;-66
2023/05/21 06:43:11;;;;;;;;;;;;;;;26.05;42.73;99363.20;68035;1275;1016425;-67
2023/05/21 06:46:14;;;;;;;;;;;;;;;26.14;43.29;99360.36;67941;1275;1018045;-68
2023/05/21 06:49:18;;;;;;;;;;;;;;;26.26;41.95;99361.85;68001;1275;1016470;-70
2023/05/21 06:52:22;;;;;;;;;;;;;;;26.27;42.45;99358.14;67985;1275;1016123;-66
2023/05/21 06:55:28;;;;;;;;;;;;;;;26.17;41.71;99357.83;67971;1275;1016290;-70
2023/05/21 06:58:32;;;;;;;;;;;;;;;26.41;41.54;99353.55;67994;1275;1018846;-68
2023/05/21 07:01:35;;;;;;;;;;;;;;;26.71;40.81;99357.98;67966;1275;1018158;-66
2023/05/21 07:04:37;;;;;;;;;;;;;;;26.79;40.06;99352.85;67999;1275;1016381;-69
2023/05/21 07:07:40;;;;;;;;;;;;;;;26.86;41.00;99349.71;67950;1275;1016472;-68
2023/05/21 07:10:43;;;;;;;;;;;;;;;27.17;40.19;99351.95;67934;1275;1017253;-67
2023/05/21 07:13:46;;;;;;;;;;;;;;;27.64;40.83;99352.36;67974;1275;1016152;-70
2023/05/21 07:16:49;;;;;;;;;;;;;;;28.04;38.95;99349.81;67973;1275;1016369;-70
2023/05/21 07:19:52;;;;;;;;;;;;;;;28.23;38.34;99348.11;67969;1275;1015833;-66
2023/05/21 07:22:55;;;;;;;;;;;;;;;28.40;37.77;99347.16;67973;1275;1018472;-70
2023/05/21 07:25:58;;;;;;;;;;;;;;;28.41;36.82;99342.84;67969;1275;1016262;-67
2023/05/21 07:29:01;;;;;;;;;;;;;;;28.50;37.73;99343.19;67985;1275;1016380;-64
2023/05/21 07:32:04;;;;;;;;;;;;;;;28.88;38.32;99344.27;67895;1273;1016580;-68
2023/05/21 07:35:07;;;;;;;;;;;;;;;29.23;37.38;99341.44;67987;1275;1018900;-64
2023/05/21 07:38:10;;;;;;;;;;;;;;;29.27;36.09;99338.42;67946;1275;1017550;-64
2023/05/21 07:41:15;;;;;;;;;;;;;;;29.23;35.44;99335.67;67949;1275;1016269;-67
2023/05/21 07:44:18;;;;;;;;;;;;;;;29.07;34.88;99331.39;67845;1275;1016116;-67
2023/05/21 07:47:22;;;;;;;;;;;;;;;28.83;34.97;99337.14;67997;1275;1016390;-63
2023/05/21 07:50:25;;;;;;;;;;;;;;;28.85;35.61;99339.56;68008;1275;1016472;-67
2023/05/21 07:53:31;;;;;;;;;;;;;;;28.89;33.99;99338.50;67958;1275;1016443;-66
2023/05/21 07:56:34;;;;;;;;;;;;;;;28.95;33.65;99334.29;67988;1275;1016323;-67
2023/05/21 07:59:36;;;;;;;;;;;;;;;29.15;34.65;99338.60;67967;1275;1015948;-68
2023/05/21 08:02:39;;;;;;;;;;;;;;;29.35;34.98;99333.80;67937;1275;1019282;-68
2023/05/21 08:05:43;;;;;;;;;;;;;;;29.54;34.64;99330.02;67976;1275;1016789;-65
2023/05/21 08:08:46;;;;;;;;;;;;;;;29.63;33.38;99323.06;68007;1275;1016176;-67
2023/05/21 08:11:49;;;;;;;;;;;;;;;29.76;33.85;99322.31;67938;1275;1016133;-67
2023/05/21 08:14:52;;;;;;;;;;;;;;;29.44;31.73;99319.90;67941;1275;1016348;-67
2023/05/21 08:17:55;;;;;;;;;;;;;;;29.33;32.42;99327.60;67881;1275;1015967;-67
2023/05/21 08:20:59;;;;;;;;;;;;;;;29.23;33.26;99325.99;67948;1275;1016094;-67
2023/05/21 08:24:09;;;;;;;;;;;;;;;29.22;32.48;99327.52;67925;1275;1016431;-66
2023/05/21 08:27:14;;;;;;;;;;;;;;;29.31;34.07;99321.90;67982;1275;1016524;-64
2023/05/21 08:30:18;;;;;;;;;;;;;;;29.51;33.65;99323.52;67987;1275;1016304;-67
2023/05/21 08:33:21;;;;;;;;;;;;;;;29.91;33.61;99315.45;67947;1275;1016479;-65
2023/05/21 08:36:25;;;;;;;;;;;;;;;30.28;32.93;99317.09;68002;1275;1016407;-67
2023/05/21 08:39:28;;;;;;;;;;;;;;;30.40;31.98;99319.51;67982;1275;1016330;-68
2023/05/21 08:42:32;;;;;;;;;;;;;;;30.25;31.63;99315.80;67999;1275;1016173;-67
2023/05/21 08:45:36;;;;;;;;;;;;;;;30.28;33.00;99320.64;67915;1275;1015846;-64
2023/05/21 08:48:40;;;;;;;;;;;;;;;30.62;32.17;99313.31;67981;1275;1016334;-68
2023/05/21 08:51:44;;;;;;;;;;;;;;;30.55;31.59;99314.08;67951;1275;1016333;-66
2023/05/21 08:54:49;;;;;;;;;;;;;;;30.71;32.12;99311.73;67962;1275;1016264;-67
2023/05/21 08:57:52;;;;;;;;;;;;;;;30.57;31.05;99309.70;67997;1275;1016449;-67
2023/05/21 09:00:55;;;;;;;;;;;;;;;30.69;31.67;99314.42;67973;1275;1016574;-64
2023/05/21 09:03:58;;;;;;;;;;;;;;;30.79;30.51;99308.72;67951;1275;1016076;-67
2023/05/21 09:07:01;;;;;;;;;;;;;;;30.69;30.55;99317.58;67988;1275;1016802;-66
2023/05/21 09:10:05;;;;;;;;;;;;;;;30.51;30.27;99317.16;67983;1275;1016210;-64
2023/05/21 09:13:08;;;;;;;;;;;;;;;30.71;31.13;99317.23;67934;1275;1016346;-66
2023/05/21 09:16:11;;;;;;;;;;;;;;;31.03;30.63;99310.63;67962;1275;1016209;-67
2023/05/21 09:19:14;;;;;;;;;;;;;;;31.21;30.24;99311.52;67949;1275;1016255;-66
2023/05/21 09:22:17;;;;;;;;;;;;;;;31.08;28.56;99308.41;67968;1275;1016131;-67
2023/05/21 09:25:20;;;;;;;;;;;;;;;30.84;29.92;99318.27;67926;1275;1015974;-66
2023/05/21 09:28:23;;;;;;;;;;;;;;;30.92;29.17;99310.06;67943;1275;1016425;-64
2023/05/21 09:31:26;;;;;;;;;;;;;;;31.14;29.55;99308.72;67946;1275;1017004;-67
2023/05/21 09:34:28;;;;;;;;;;;;;;;31.29;29.42;99307.64;67924;1275;1016078;-66
2023/05/21 09:37:36;;;;;;;;;;;;;;;31.19;29.15;99304.95;67960;1275;1020055;-66
2023/05/21 09:40:39;;;;;;;;;;;;;;;30.86;28.67;99303.24;67977;1275;1016490;-64
2023/05/21 09:43:44;;;;;;;;;;;;;;;30.67;28.62;99309.55;67957;1275;1016142;-67
2023/05/21 09:46:51;;;;;;;;;;;;;;;30.80;29.45;99301.63;67936;1275;1016261;-66
2023/05/21 09:49:54;;;;;;;;;;;;;;;30.98;29.22;99302.44;67898;1275;1016465;-66
2023/05/21 09:52:57;;;;;;;;;;;;;;;30.97;29.68;99300.35;67940;1275;1016451;-64
2023/05/21 09:56:00;;;;;;;;;;;;;;;30.91;28.92;99302.63;67934;1275;1016472;-67
2023/05/21 09:59:04;;;;;;;;;;;;;;;30.70;29.14;99303.54;67920;1275;1016663;-67
2023/05/21 10:02:07;;;;;;;;;;;;;;;30.69;29.27;99300.33;67978;1274;1016262;-67
2023/05/21 10:05:10;;;;;;;;;;;;;;;30.75;29.18;99301.28;67901;1275;1016465;-68
2023/05/21 10:08:13;;;;;;;;;;;;;;;31.09;29.86;99295.98;67990;1275;1016356;-65
2023/05/21 10:11:15;;;;;;;;;;;;;;;31.52;29.90;99296.96;67957;1275;1016251;-68
2023/05/21 10:14:18;;;;;;;;;;;;;;;31.49;28.73;99292.06;67908;1275;1016168;-68
2023/05/21 10:17:21;;;;;;;;;;;;;;;31.41;28.95;99291.18;67957;1275;1016281;-67
2023/05/21 10:20:24;;;;;;;;;;;;;;;31.21;27.81;99293.67;67946;1275;1017451;-65
2023/05/21 10:23:34;;;;;;;;;;;;;;;30.82;28.58;99292.88;67921;1275;1016118;-67
2023/05/21 10:26:38;;;;;;;;;;;;;;;31.00;29.18;99292.98;67947;1275;1016983;-67
2023/05/21 10:29:40;;;;;;;;;;;;;;;31.19;28.92;99285.55;67878;1275;1016036;-68
2023/05/21 10:32:45;;;;;;;;;;;;;;;31.17;28.70;99280.08;67982;1275;1016461;-67
2023/05/21 10:35:48;;;;;;;;;;;;;;;31.12;29.13;99284.66;67928;1275;1016220;-68
2023/05/21 10:38:52;;;;;;;;;;;;;;;31.47;29.70;99280.05;67952;1275;1016356;-68
2023/05/21 10:41:55;;;;;;;;;;;;;;;31.53;28.39;99275.13;67928;1274;1016527;-67
2023/05/21 10:44:57;;;;;;;;;;;;;;;31.66;29.35;99274.10;67934;1275;1018829;-66
2023/05/21 10:48:16;;;;;;;;;;;;;;;32.02;30.00;99266.91;67916;1275;1016294;-65
2023/05/21 10:51:21;;;;;;;;;;;;;;;32.33;29.87;99269.30;67930;1275;1016034;-68
2023/05/21 10:54:23;;;;;;;;;;;;;;;32.65;28.82;99263.83;67963;1275;1016365;-64
2023/05/21 10:57:26;;;;;;;;;;;;;;;32.50;28.16;99268.21;67901;1275;1016438;-67
2023/05/21 11:00:31;;;;;;;;;;;;;;;32.13;28.16;99264.83;67948;1275;1016456;-67
2023/05/21 11:03:34;;;;;;;;;;;;;;;32.08;28.94;99265.75;67926;1275;1016204;-67
2023/05/21 11:06:38;;;;;;;;;;;;;;;32.40;28.90;99261.52;67963;1275;1016462;-66
2023/05/21 11:09:41;;;;;;;;;;;;;;;32.50;28.44;99256.72;67971;1275;1016304;-65
2023/05/21 11:12:45;;;;;;;;;;;;;;;32.41;28.30;99258.83;67925;1275;1016506;-64
2023/05/21 11:15:48;;;;;;;;;;;;;;;32.18;28.34;99260.44;67919;1275;1016306;-64
2023/05/21 11:18:53;;;;;;;;;;;;;;;32.11;28.51;99256.58;67953;1275;1016482;-67
2023/05/21 11:21:56;;;;;;;;;;;;;;;31.84;28.10;99259.02;67969;1275;1016389;-67
2023/05/21 11:24:59;;;;;;;;;;;;;;;31.72;29.08;99258.10;67935;1275;1016447;-64
2023/05/21 11:28:03;;;;;;;;;;;;;;;31.82;28.69;99256.41;67915;1275;1016737;-64
2023/05/21 11:31:05;;;;;;;;;;;;;;;31.90;28.40;99254.10;67897;1275;1016146;-67
2023/05/21 11:34:08;;;;;;;;;;;;;;;31.96;28.30;99249.58;67940;1275;1016211;-67
2023/05/21 11:37:12;;;;;;;;;;;;;;;32.07;28.71;99247.66;67979;1275;1016417;-64
2023/05/21 11:40:14;;;;;;;;;;;;;;;31.71;28.51;99241.08;67963;1275;1016303;-67
2023/05/21 11:43:21;;;;;;;;;;;;;;;31.64;29.38;99239.84;67941;1275;1016100;-68
2023/05/21 11:46:23;;;;;;;;;;;;;;;31.84;29.12;99241.95;67913;1275;1016481;-64
2023/05/21 11:49:26;;;;;;;;;;;;;;;31.99;28.83;99237.53;67927;1275;1018344;-68
2023/05/21 11:52:29;;;;;;;;;;;;;;;32.05;28.84;99229.68;67895;1275;1016425;-68
2023/05/21 11:55:31;;;;;;;;;;;;;;;32.30;29.24;99236.61;67914;1275;1016048;-67
2023/05/21 11:58:35;;;;;;;;;;;;;;;32.68;28.98;99231.46;67911;1275;1016364;-64
2023/05/21 12:01:38;;;;;;;;;;;;;;;32.96;28.82;99234.95;67919;1275;1019001;-65
2023/05/21 12:04:48;;;;;;;;;;;;;;;32.62;28.00;99232.70;67946;1275;1016428;-66
2023/05/21 12:07:53;;;;;;;;;;;;;;;32.39;28.57;99231.26;67931;1275;1016208;-70
2023/05/21 12:10:55;;;;;;;;;;;;;;;32.69;29.90;99233.29;67828;1268;1016285;-63
2023/05/21 12:13:59;;;;;;;;;;;;;;;32.86;28.21;99233.17;67955;1275;1016621;-72
2023/05/21 12:17:02;;;;;;;;;;;;;;;32.40;28.60;99234.33;67689;1275;1016571;-71
2023/05/21 12:20:07;;;;;;;;;;;;;;;32.27;28.87;99231.17;67912;1275;1016473;-62
2023/05/21 12:23:12;;;;;;;;;;;;;;;32.47;29.32;99227.15;67914;1275;1016890;-62
2023/05/21 12:26:16;;;;;;;;;;;;;;;32.92;29.55;99229.08;67912;1275;1016224;-62
2023/05/21 12:29:22;;;;;;;;;;;;;;;33.13;28.34;99220.95;67947;1275;1016454;-67
2023/05/21 12:32:25;;;;;;;;;;;;;;;32.95;28.59;99226.02;67947;1275;1016388;-63
2023/05/21 12:35:31;;;;;;;;;;;;;;;32.71;28.12;99231.66;67944;1275;1016610;-63
2023/05/21 12:38:35;;;;;;;;;;;;;;;32.38;28.80;99233.95;67880;1275;1018876;-68
2023/05/21 12:41:39;;;;;;;;;;;;;;;32.69;30.15;99232.23;67939;1276;1016354;-69
2023/05/21 12:44:42;;;;;;;;;;;;;;;33.02;28.74;99231.48;67863;1276;1016416;-71
2023/05/21 12:47:46;;;;;;;;;;;;;;;33.12;28.92;99226.54;67912;1276;1016442;-69
2023/05/21 12:50:48;;;;;;;;;;;;;;;33.16;28.67;99225.27;67915;1276;1018160;-68
2023/05/21 12:53:51;;;;;;;;;;;;;;;33.20;28.27;99226.36;67933;1276;1016360;-70
2023/05/21 12:56:55;;;;;;;;;;;;;;;33.41;28.71;99217.67;67928;1276;1016459;-64
2023/05/21 12:59:58;;;;;;;;;;;;;;;33.74;28.73;99221.96;67936;1276;1016471;-63
2023/05/21 13:03:03;;;;;;;;;;;;;;;33.93;29.32;99221.00;67896;1276;1016452;-62
2023/05/21 13:06:05;;;;;;;;;;;;;;;34.12;28.56;99222.13;67887;1276;1016089;-64
2023/05/21 13:09:09;;;;;;;;;;;;;;;33.84;27.22;99217.23;67959;1275;1016021;-64
2023/05/21 13:12:12;;;;;;;;;;;;;;;33.84;28.07;99217.85;67932;1275;1016494;-63
2023/05/21 13:15:16;;;;;;;;;;;;;;;34.25;27.98;99215.48;67949;1275;1016395;-65
2023/05/21 13:18:19;;;;;;;;;;;;;;;34.60;28.61;99211.94;67952;1275;1016571;-65
2023/05/21 13:21:23;;;;;;;;;;;;;;;34.90;28.08;99208.28;67977;1275;1016200;-66
2023/05/21 13:24:26;;;;;;;;;;;;;;;34.85;27.75;99213.69;67937;1275;1016514;-63
2023/05/21 13:27:30;;;;;;;;;;;;;;;34.60;27.55;99213.20;67893;1275;1016470;-71
2023/05/21 13:30:33;;;;;;;;;;;;;;;34.40;27.22;99213.16;67940;1275;1016603;-71
2023/05/21 13:33:36;;;;;;;;;;;;;;;34.24;27.50;99212.82;67906;1275;1018368;-70
2023/05/21 13:36:38;;;;;;;;;;;;;;;34.35;27.91;99213.71;67874;1275;1017972;-71
2023/05/21 13:39:42;;;;;;;;;;;;;;;34.09;27.27;99208.13;67906;1271;1019021;-67
2023/05/21 13:42:45;;;;;;;;;;;;;;;34.03;27.75;99212.67;67963;1275;1015999;-63
2023/05/21 13:45:48;;;;;;;;;;;;;;;34.38;28.33;99211.26;67925;1275;1015787;-71
2023/05/21 13:48:51;;;;;;;;;;;;;;;34.60;27.35;99206.54;67961;1275;1016082;-69
2023/05/21 13:51:55;;;;;;;;;;;;;;;34.68;26.99;99204.95;67926;1275;1016491;-63
2023/05/21 13:54:57;;;;;;;;;;;;;;;34.45;26.94;99205.00;67901;1275;1016319;-73
2023/05/21 13:58:00;;;;;;;;;;;;;;;34.36;27.15;99209.17;67887;1275;1016397;-62
2023/05/21 14:01:03;;;;;;;;;;;;;;;34.38;27.13;99207.58;67898;1275;1016493;-71
2023/05/21 14:04:06;;;;;;;;;;;;;;;34.43;26.95;99197.06;67931;1275;1016030;-63
2023/05/21 14:07:08;;;;;;;;;;;;;;;34.04;26.07;99195.08;67872;1275;1016471;-70
2023/05/21 14:10:11;;;;;;;;;;;;;;;34.03;26.56;99196.58;67960;1275;1016502;-69
2023/05/21 14:13:13;;;;;;;;;;;;;;;33.99;26.82;99195.98;67935;1275;1016440;-70
2023/05/21 14:16:17;;;;;;;;;;;;;;;34.21;26.43;99196.14;67908;1275;1017308;-69
2023/05/21 14:19:19;;;;;;;;;;;;;;;34.45;26.70;99201.45;67944;1275;1016569;-65
2023/05/21 14:22:21;;;;;;;;;;;;;;;34.34;26.10;99199.98;67810;1275;1017116;-72
2023/05/21 14:25:24;;;;;;;;;;;;;;;34.39;26.06;99196.33;67907;1275;1016756;-69
2023/05/21 14:28:26;;;;;;;;;;;;;;;34.71;25.84;99195.76;67950;1275;1016514;-65
2023/05/21 14:31:29;;;;;;;;;;;;;;;34.93;25.55;99188.62;67962;1275;1016553;-72
2023/05/21 14:34:31;;;;;;;;;;;;;;;34.59;24.81;99183.98;67977;1275;1016567;-62
2023/05/21 14:37:34;;;;;;;;;;;;;;;34.11;24.92;99190.83;67917;1275;1016477;-61
2023/05/21 14:40:36;;;;;;;;;;;;;;;33.82;25.85;99184.80;67954;1275;1016280;-62
2023/05/21 14:43:38;;;;;;;;;;;;;;;33.94;26.25;99180.80;67959;1275;1016351;-62
2023/05/21 14:46:41;;;;;;;;;;;;;;;33.69;26.00;99184.04;67952;1275;1016326;-70
2023/05/21 14:49:43;;;;;;;;;;;;;;;33.64;25.90;99182.23;67953;1275;1016695;-73
2023/05/21 14:52:45;;;;;;;;;;;;;;;33.63;25.92;99179.88;67974;1275;1016497;-61
2023/05/21 14:55:48;;;;;;;;;;;;;;;33.53;25.76;99174.78;67901;1275;1016256;-72
2023/05/21 14:58:50;;;;;;;;;;;;;;;33.29;26.22;99176.27;67932;1275;1017962;-72
2023/05/21 15:01:53;;;;;;;;;;;;;;;33.44;25.93;99175.35;67942;1275;1016904;-72
2023/05/21 15:04:55;;;;;;;;;;;;;;;33.77;25.36;99176.77;67961;1275;1016322;-64
2023/05/21 15:07:58;;;;;;;;;;;;;;;34.41;24.62;99176.26;67975;1275;1016119;-72
2023/05/21 15:11:00;;;;;;;;;;;;;;;35.28;24.09;99173.04;67924;1275;1016172;-72
2023/05/21 15:14:02;;;;;;;;;;;;;;;35.73;23.39;99174.25;67914;1275;1016545;-72
2023/05/21 15:17:05;;;;;;;;;;;;;;;35.28;23.38;99176.48;67925;1275;1016504;-68
2023/05/21 15:20:08;;;;;;;;;;;;;;;35.06;23.63;99177.25;67958;1275;1016454;-72
2023/05/21 15:23:10;;;;;;;;;;;;;;;35.63;23.52;99179.01;67930;1275;1016382;-72
2023/05/21 15:26:13;;;;;;;;;;;;;;;36.03;22.85;99179.11;67916;1275;1016285;-62
2023/05/21 15:29:15;;;;;;;;;;;;;;;36.98;22.67;99175.76;67924;1275;1016224;-71
2023/05/21 15:32:19;;;;;;;;;;;;;;;37.21;21.66;99180.07;67962;1275;1016424;-72